MSC Florentina — HPFH — position and weather

sailwx.info

Track history (hours):
 
Tides and Currents Weather Stations Pressure Air Temp Water Temp Dewpoint Dewpoint Depression Visibility Wind Speed Wind Dir Waves Ship Positions

MSC Florentina

Last reported at 2017-Feb-22 17:17 UTC. Time now 2017-Feb-26 10:37 UTC.
Position S 27°38' W 048°10'.

Length 300 m; draft 7.7 m.

Type: Ship (hazmat cat A). MMSI: 352870000.

Date/timePositionNaut miles runAvg speedWind from/ knotsBaromVisibWave heightAir tempDewpointWater temp
2017-Feb-22 17:17S 27°38' W 048°10'1317.8
2017-Feb-22 16:32S 27°25' W 048°10'2216.9
2017-Feb-22 15:15S 27°05' W 048°20'167 4.0
2017-Feb-20 21:10S 24°41' W 046°46'710.7
2017-Feb-20 20:33S 24°36' W 046°41'6 5.9
2017-Feb-20 19:33S 24°31' W 046°37'0 0.3
2017-Feb-20 18:25S 24°31' W 046°37'0 0.2
2017-Feb-20 17:31S 24°31' W 046°37'5 5.5
2017-Feb-20 16:33S 24°27' W 046°33'1818.0
2017-Feb-20 15:33S 24°11' W 046°25'1312.9
2017-Feb-20 14:33S 23°60' W 046°18'2 0.2
2017-Feb-20 04:12S 23°58' W 046°18'0 0.0
2017-Feb-19 18:24S 23°58' W 046°18'0 0.0
2017-Feb-19 17:24S 23°58' W 046°18'0 0.0
2017-Feb-19 16:30S 23°58' W 046°18'1 0.1
2017-Feb-18 17:33S 23°59' W 046°18'6 5.7
2017-Feb-18 16:33S 24°04' W 046°22'7 7.0
2017-Feb-18 15:33S 24°11' W 046°21'7 7.0
2017-Feb-18 14:33S 24°15' W 046°16'3 2.9
2017-Feb-18 13:33S 24°14' W 046°13'0 0.0
2017-Feb-18 12:27S 24°14' W 046°13'0 0.0
2017-Feb-18 11:30S 24°14' W 046°13'0 0.1
2017-Feb-18 10:30S 24°14' W 046°13'1 0.8
2017-Feb-18 09:33S 24°14' W 046°12'1514.9
2017-Feb-18 08:32S 24°15' W 045°56'  
Track history (hours):
 
Tides and Currents Weather Stations Pressure Air Temp Water Temp Dewpoint Dewpoint Depression Visibility Wind Speed Wind Dir Waves Ship Positions

MSC Florentina

Last reported at 2017-Feb-22 17:17 UTC. Time now 2017-Feb-26 10:37 UTC.
Position S 27°38' W 048°10'.

Length 300 m; draft 7.7 m.

Type: Ship (hazmat cat A). MMSI: 352870000.

Date/timePositionNaut miles runAvg speedWind from/ knotsBaromVisibWave heightAir tempDewpointWater temp
2017-Feb-22 17:17S 27°38' W 048°10'1317.8
2017-Feb-22 16:32S 27°25' W 048°10'2216.9
2017-Feb-22 15:15S 27°05' W 048°20'167 4.0
2017-Feb-20 21:10S 24°41' W 046°46'710.7
2017-Feb-20 20:33S 24°36' W 046°41'6 5.9
2017-Feb-20 19:33S 24°31' W 046°37'0 0.3
2017-Feb-20 18:25S 24°31' W 046°37'0 0.2
2017-Feb-20 17:31S 24°31' W 046°37'5 5.5
2017-Feb-20 16:33S 24°27' W 046°33'1818.0
2017-Feb-20 15:33S 24°11' W 046°25'1312.9
2017-Feb-20 14:33S 23°60' W 046°18'2 0.2
2017-Feb-20 04:12S 23°58' W 046°18'0 0.0
2017-Feb-19 18:24S 23°58' W 046°18'0 0.0
2017-Feb-19 17:24S 23°58' W 046°18'0 0.0
2017-Feb-19 16:30S 23°58' W 046°18'1 0.1
2017-Feb-18 17:33S 23°59' W 046°18'6 5.7
2017-Feb-18 16:33S 24°04' W 046°22'7 7.0
2017-Feb-18 15:33S 24°11' W 046°21'7 7.0
2017-Feb-18 14:33S 24°15' W 046°16'3 2.9
2017-Feb-18 13:33S 24°14' W 046°13'0 0.0
2017-Feb-18 12:27S 24°14' W 046°13'0 0.0
2017-Feb-18 11:30S 24°14' W 046°13'0 0.1
2017-Feb-18 10:30S 24°14' W 046°13'1 0.8
2017-Feb-18 09:33S 24°14' W 046°12'1514.9
2017-Feb-18 08:32S 24°15' W 045°56'  

Dump ship's entire track history